Terminal Aerodrome Forecast
Issued by NWS

Home | Current Version | Previous Version | Graphics & Text | Print | Product List | Glossary On
Versions: 1 2 3 4 5 6 7 8 9 10 11 12 13 14 15 16 17 18 19 20 21 22 23 24 25 26 27
000
FTUS43 KLOT 201503 AAA
TAFGYY
TAF AMD
KGYY 201503Z 2015/2112 07008KT 3SM BR OVC005
      TEMPO 2015/2017 2SM -DZ BR OVC003
     FM201800 16005KT 4SM BR OVC006
     FM210300 13006KT 1SM -DZ BR OVC004=

USA.gov is the U.S. government's official web portal to all federal, state and local government web resources and services.